Bostic Yard, North Carolina
Current Conditions -  °F | °C
As of 4:35 PM on Thursday 23 Oct 2014 (Local Time) from KFQD Reporting Station
Clear Clear  
Wind Chill: 71°   Ceiling: Unl
Heat Index: 71°   Visibility: 10mi
Dew Point: 36°   Wind: 6mph
Humidity: 28%   Direction: 20°NNE
Pressure: 30.01"   Gusts: NA
Location:  35.4977°N, 81.7958°W
Report Text: KFQD 232035Z AUTO 02005KT 10SM CLR 22/02 A3001 RMK AO2 T02150024
Loading
Personal Weather Stations






























Interactive Weather Map
Tropical Storm Tracking
New forecast layout! Learn more

10-Day Weather Forecast

Advertisements
Track Severe Weather on mobile